Time;durP1;ratioP1;P1;durP2;ratioP2;P2;SDS_P1;SDS_P2;PMS_P1;PMS_P2;Temp;Humidity;BMP_temperature;BMP_pressure;BME280_temperature;BME280_humidity;BME280_pressure;Samples;Min_cycle;Max_cycle;Signal;HPM_P1;HPM_P2
2022/06/03 00:00:09;;;;;;;0.75;0.60;;;21.10;49.90;;;;;;6173392;28;20101;-73
2022/06/03 00:03:37;;;;;;;1.08;0.57;;;21.10;49.80;;;;;;6179538;28;20497;-73
2022/06/03 00:06:56;;;;;;;0.75;0.50;;;21.10;49.90;;;;;;6195935;28;20564;-73
2022/06/03 00:10:19;;;;;;;0.93;0.50;;;21.10;49.90;;;;;;6179439;28;20125;-73
2022/06/03 00:13:26;;;;;;;0.40;0.40;;;21.10;49.90;;;;;;6176475;28;20509;-73
2022/06/03 00:16:35;;;;;;;0.65;0.40;;;21.10;49.90;;;;;;6197619;28;20037;-73
2022/06/03 00:19:53;;;;;;;0.40;0.40;;;21.10;49.90;;;;;;6183984;28;20454;-72
2022/06/03 00:23:13;;;;;;;0.68;0.50;;;21.10;49.90;;;;;;6171769;28;20026;-72
2022/06/03 00:26:20;;;;;;;1.58;0.90;;;21.10;49.90;;;;;;6172918;28;20416;-72
2022/06/03 00:29:59;;;;;;;1.02;0.50;;;21.10;49.90;;;;;;6182121;28;20448;-72
2022/06/03 00:33:12;;;;;;;0.63;0.50;;;21.10;49.90;;;;;;6132588;29;20090;-73
2022/06/03 00:36:15;;;;;;;0.30;0.30;;;21.10;49.90;;;;;;6123602;28;20602;-73
2022/06/03 00:39:45;;;;;;;1.75;0.47;;;21.10;50.00;;;;;;6189028;28;20065;-72
2022/06/03 00:43:07;;;;;;;0.60;0.47;;;21.10;50.00;;;;;;6134704;28;20082;-72
2022/06/03 00:46:53;;;;;;;0.60;0.57;;;21.00;49.80;;;;;;6192513;28;20049;-74
2022/06/03 00:50:09;;;;;;;0.60;0.47;;;21.10;50.00;;;;;;6182376;28;20046;-73
2022/06/03 00:53:12;;;;;;;0.90;0.50;;;21.10;49.90;;;;;;6183065;28;20022;-73
2022/06/03 00:56:38;;;;;;;0.93;0.60;;;21.10;50.00;;;;;;6157889;28;20062;-73
2022/06/03 00:59:57;;;;;;;0.88;0.35;;;21.10;50.00;;;;;;6172320;28;20035;-73
2022/06/03 01:03:11;;;;;;;0.68;0.40;;;21.10;50.00;;;;;;6189270;28;20143;-73
2022/06/03 01:06:32;;;;;;;1.50;0.55;;;21.10;50.00;;;;;;6175084;28;20026;-72
2022/06/03 01:09:42;;;;;;;0.88;0.60;;;21.10;50.00;;;;;;6177312;28;20039;-73
2022/06/03 01:12:57;;;;;;;0.98;0.60;;;21.10;50.00;;;;;;6195972;28;20561;-73
2022/06/03 01:16:25;;;;;;;0.85;0.60;;;21.10;50.00;;;;;;6178917;28;20430;-72
2022/06/03 01:19:55;;;;;;;1.48;0.60;;;21.10;50.00;;;;;;6173529;28;20026;-72
2022/06/03 01:23:14;;;;;;;0.63;0.57;;;21.10;50.00;;;;;;6194093;28;20484;-73
2022/06/03 01:26:34;;;;;;;0.90;0.60;;;21.10;50.00;;;;;;6177999;28;20046;-73
2022/06/03 01:30:06;;;;;;;0.73;0.60;;;21.10;50.00;;;;;;6171459;28;20528;-73
2022/06/03 01:33:13;;;;;;;0.70;0.52;;;21.10;50.00;;;;;;6170142;28;20066;-72
2022/06/03 01:36:22;;;;;;;1.23;0.88;;;21.10;50.00;;;;;;6170560;28;20019;-72
2022/06/03 01:39:43;;;;;;;1.10;0.77;;;21.10;50.10;;;;;;6171012;28;20074;-73
2022/06/03 01:43:33;;;;;;;0.50;0.50;;;21.00;50.00;;;;;;6193790;28;20046;-72
2022/06/03 01:46:39;;;;;;;0.98;0.70;;;21.10;50.10;;;;;;6120268;28;20395;-72
2022/06/03 01:49:40;;;;;;;0.70;0.65;;;21.10;50.10;;;;;;6175173;28;20073;-72
2022/06/03 01:53:12;;;;;;;0.82;0.60;;;21.10;50.10;;;;;;6160076;28;20030;-72
2022/06/03 01:56:40;;;;;;;0.90;0.70;;;21.10;50.00;;;;;;6181446;28;20066;-73
2022/06/03 01:59:44;;;;;;;0.90;0.60;;;21.10;50.10;;;;;;6169914;28;20065;-73
2022/06/03 02:03:20;;;;;;;0.50;0.50;;;21.10;50.10;;;;;;6169579;28;20027;-72
2022/06/03 02:06:42;;;;;;;2.90;0.63;;;21.10;50.00;;;;;;6182457;28;20029;-73
2022/06/03 02:10:20;;;;;;;1.48;0.80;;;21.10;50.10;;;;;;6193513;28;20056;-73
2022/06/03 02:13:34;;;;;;;1.27;0.75;;;21.10;50.10;;;;;;6171011;28;20222;-73
2022/06/03 02:16:56;;;;;;;0.77;0.70;;;21.10;50.10;;;;;;6183878;28;20022;-73
2022/06/03 02:20:29;;;;;;;0.77;0.65;;;21.10;50.10;;;;;;6194930;28;20041;-73
2022/06/03 02:23:51;;;;;;;0.88;0.70;;;21.00;50.10;;;;;;6170831;28;20498;-73
2022/06/03 02:27:13;;;;;;;0.60;0.57;;;21.10;50.10;;;;;;6185024;28;20110;-72
2022/06/03 02:30:37;;;;;;;1.73;0.80;;;21.10;50.20;;;;;;6194231;28;20137;-72
2022/06/03 02:34:09;;;;;;;0.93;0.60;;;21.00;50.10;;;;;;6156820;28;20201;-72
2022/06/03 02:37:31;;;;;;;1.10;0.73;;;21.10;50.20;;;;;;6189748;28;20113;-72
2022/06/03 02:41:01;;;;;;;0.77;0.70;;;21.00;50.10;;;;;;6196672;28;20026;-72
2022/06/03 02:44:01;;;;;;;0.70;0.68;;;21.10;50.20;;;;;;6174410;28;20034;-74
2022/06/03 02:47:21;;;;;;;0.90;0.60;;;21.10;50.10;;;;;;6187990;28;20440;-73
2022/06/03 02:50:42;;;;;;;1.80;0.60;;;21.00;50.10;;;;;;6199307;28;20035;-73
2022/06/03 02:54:14;;;;;;;0.90;0.60;;;21.00;50.20;;;;;;6173967;28;20057;-72
2022/06/03 02:57:30;;;;;;;2.95;0.70;;;21.10;50.20;;;;;;6188264;28;20041;-73
2022/06/03 03:00:45;;;;;;;0.88;0.60;;;21.00;50.10;;;;;;6199387;28;20034;-73
2022/06/03 03:03:48;;;;;;;1.23;0.70;;;21.00;50.10;;;;;;6175273;28;20031;-73
2022/06/03 03:07:20;;;;;;;1.42;0.60;;;21.00;50.20;;;;;;6182780;28;20669;-72
2022/06/03 03:10:44;;;;;;;0.75;0.70;;;21.00;50.20;;;;;;6197679;28;20031;-72
2022/06/03 03:14:06;;;;;;;0.88;0.60;;;21.00;50.10;;;;;;6175943;28;20109;-73
2022/06/03 03:17:29;;;;;;;0.88;0.60;;;21.10;50.20;;;;;;6184196;28;20023;-73
2022/06/03 03:20:54;;;;;;;0.80;0.70;;;21.00;50.20;;;;;;6199064;28;20026;-73
2022/06/03 03:24:26;;;;;;;0.90;0.70;;;21.00;50.20;;;;;;6175982;28;20027;-72
2022/06/03 03:27:41;;;;;;;1.15;0.80;;;21.00;50.20;;;;;;6185538;28;20030;-72
2022/06/03 03:30:48;;;;;;;0.80;0.70;;;21.10;50.20;;;;;;6198138;28;20035;-72
2022/06/03 03:34:23;;;;;;;1.30;0.90;;;21.00;50.20;;;;;;6176170;28;20058;-72
2022/06/03 03:37:44;;;;;;;1.23;0.60;;;21.00;50.20;;;;;;6182882;28;20025;-72
2022/06/03 03:41:01;;;;;;;1.27;0.82;;;21.10;50.30;;;;;;6197239;28;20043;-73
2022/06/03 03:44:39;;;;;;;1.10;0.80;;;21.00;50.20;;;;;;6198661;28;20113;-73
2022/06/03 03:47:49;;;;;;;0.70;0.63;;;21.10;50.20;;;;;;6188957;28;20030;-73
2022/06/03 03:51:28;;;;;;;0.95;0.80;;;21.00;50.20;;;;;;6173129;28;20502;-73
2022/06/03 03:54:54;;;;;;;1.02;0.73;;;21.00;50.20;;;;;;6196198;28;20037;-72
2022/06/03 03:58:16;;;;;;;1.23;0.70;;;21.10;50.30;;;;;;6191379;28;20022;-72
2022/06/03 04:01:28;;;;;;;0.90;0.80;;;21.00;50.20;;;;;;6198111;28;20022;-72
2022/06/03 04:05:11;;;;;;;1.05;0.75;;;21.00;50.20;;;;;;6175669;28;20117;-73
2022/06/03 04:08:32;;;;;;;1.00;0.80;;;21.00;50.20;;;;;;6165918;28;20501;-72
2022/06/03 04:11:51;;;;;;;1.10;0.70;;;21.00;50.30;;;;;;6196697;28;20027;-72
2022/06/03 04:15:09;;;;;;;1.10;0.80;;;21.00;50.30;;;;;;6172126;28;20437;-72
2022/06/03 04:18:40;;;;;;;1.30;0.70;;;21.00;50.20;;;;;;6182829;28;20088;-73
2022/06/03 04:22:33;;;;;;;1.23;0.90;;;21.00;50.20;;;;;;6191340;28;20501;-73
2022/06/03 04:25:50;;;;;;;1.25;0.80;;;21.00;50.30;;;;;;6097428;29;20113;-73
2022/06/03 04:28:59;;;;;;;1.23;0.73;;;21.00;50.30;;;;;;6101815;28;20020;-73
2022/06/03 04:32:58;;;;;;;0.95;0.73;;;21.00;50.20;;;;;;6171875;28;20053;-73
2022/06/03 04:36:14;;;;;;;0.90;0.63;;;21.00;50.30;;;;;;6097063;29;20051;-73
2022/06/03 04:39:52;;;;;;;1.08;0.77;;;21.00;50.20;;;;;;6123325;28;20034;-72
2022/06/03 04:43:07;;;;;;;1.35;0.95;;;21.00;50.20;;;;;;6191898;28;20359;-73
2022/06/03 04:46:28;;;;;;;;;;;21.00;50.20;;;;;;6173006;28;20027;-73
2022/06/03 04:50:06;;;;;;;1.15;0.90;;;21.00;50.20;;;;;;6187542;28;19913;-73
2022/06/03 04:53:31;;;;;;;1.73;0.80;;;21.00;50.20;;;;;;6187209;28;20082;-72
2022/06/03 04:56:55;;;;;;;1.65;1.00;;;21.00;50.20;;;;;;6171846;28;20074;-72
2022/06/03 05:00:42;;;;;;;2.25;0.90;;;21.00;50.30;;;;;;6189200;28;20493;-73
2022/06/03 05:04:02;;;;;;;1.17;0.90;;;21.00;50.30;;;;;;6179852;28;20030;-72
2022/06/03 05:07:05;;;;;;;1.17;0.85;;;21.00;50.30;;;;;;6196128;28;20081;-72
2022/06/03 05:10:43;;;;;;;0.98;0.70;;;21.00;50.20;;;;;;6177108;28;20038;-73
2022/06/03 05:14:22;;;;;;;1.70;1.02;;;21.00;50.30;;;;;;6184306;28;20057;-72
2022/06/03 05:18:07;;;;;;;1.08;0.80;;;21.00;50.30;;;;;;6199351;28;20397;-72
2022/06/03 05:21:10;;;;;;;0.77;0.77;;;21.00;50.30;;;;;;6152116;28;20133;-73
2022/06/03 05:24:49;;;;;;;1.15;0.82;;;21.00;50.20;;;;;;6188304;28;20594;-72
2022/06/03 05:28:25;;;;;;;2.92;1.30;;;21.00;50.20;;;;;;6191241;28;20033;-74
2022/06/03 05:31:38;;;;;;;1.85;0.95;;;21.10;49.80;;;;;;6180981;28;20510;-72
2022/06/03 05:35:00;;;;;;;1.73;1.20;;;21.00;50.10;;;;;;6182589;28;20106;-72
2022/06/03 05:38:30;;;;;;;1.13;0.80;;;21.00;50.20;;;;;;6169931;28;20039;-73
2022/06/03 05:45:29;;;;;;;1.00;0.80;;;21.00;50.30;;;;;;6178059;28;20042;-72
2022/06/03 05:49:14;;;;;;;2.10;1.00;;;21.00;50.30;;;;;;6169623;28;20105;-72
2022/06/03 05:52:44;;;;;;;1.20;0.93;;;21.00;50.60;;;;;;6188461;28;20421;-72
2022/06/03 05:56:06;;;;;;;1.17;0.75;;;21.00;50.40;;;;;;6174837;28;20046;-72
2022/06/03 05:59:45;;;;;;;1.60;0.88;;;21.00;50.50;;;;;;6166746;28;20026;-72
2022/06/03 06:03:07;;;;;;;1.20;0.88;;;21.00;50.50;;;;;;6186381;28;20027;-73
2022/06/03 06:06:45;;;;;;;1.70;1.30;;;21.00;50.50;;;;;;6189036;28;20125;-73
2022/06/03 06:10:07;;;;;;;2.08;1.30;;;21.00;50.60;;;;;;6188343;28;20505;-73
2022/06/03 06:13:46;;;;;;;1.27;0.98;;;21.00;50.50;;;;;;6172459;28;20031;-72
2022/06/03 06:16:47;;;;;;;1.35;1.00;;;21.00;50.60;;;;;;6175146;28;20037;-72
2022/06/03 06:19:57;;;;;;;1.90;1.13;;;21.00;50.60;;;;;;6182642;28;20101;-73
2022/06/03 06:23:13;;;;;;;2.08;1.30;;;21.00;50.60;;;;;;6178856;28;20023;-72
2022/06/03 06:26:41;;;;;;;1.05;0.80;;;21.00;50.60;;;;;;6188728;28;20069;-72
2022/06/03 06:30:03;;;;;;;1.23;1.00;;;21.00;50.60;;;;;;6190020;28;20402;-73
2022/06/03 06:33:25;;;;;;;1.95;1.05;;;21.00;50.70;;;;;;6170613;28;20109;-72
2022/06/03 06:36:44;;;;;;;1.70;0.95;;;21.00;50.60;;;;;;6163903;28;20053;-72
2022/06/03 06:40:12;;;;;;;3.05;1.10;;;21.00;50.60;;;;;;6172643;28;20041;-72
2022/06/03 06:43:30;;;;;;;1.45;1.00;;;21.00;50.70;;;;;;6170724;28;20033;-72
2022/06/03 06:46:54;;;;;;;1.65;1.02;;;21.00;50.60;;;;;;6172070;28;20498;-72
2022/06/03 06:50:04;;;;;;;1.65;1.10;;;21.00;50.70;;;;;;6169284;28;20034;-74
2022/06/03 06:53:11;;;;;;;1.35;0.98;;;21.00;50.70;;;;;;6180314;28;20031;-72
2022/06/03 06:56:18;;;;;;;1.45;0.95;;;21.00;50.70;;;;;;6178184;28;20464;-74
2022/06/03 06:59:43;;;;;;;1.40;1.20;;;21.00;50.70;;;;;;6170368;28;20090;-72
2022/06/03 07:02:47;;;;;;;1.50;0.87;;;21.00;50.70;;;;;;6171442;28;20162;-72
2022/06/03 07:05:54;;;;;;;1.60;1.00;;;21.00;50.70;;;;;;6172060;28;20031;-72
2022/06/03 07:09:10;;;;;;;1.30;0.95;;;21.00;50.70;;;;;;6170802;28;20019;-72
2022/06/03 07:12:18;;;;;;;1.73;1.13;;;21.00;50.70;;;;;;6192784;28;20105;-73
2022/06/03 07:15:44;;;;;;;1.23;0.98;;;21.00;50.70;;;;;;6190382;28;20030;-72
2022/06/03 07:22:27;;;;;;;0.88;0.75;;;21.00;50.70;;;;;;6190024;28;20023;-73
2022/06/03 07:25:31;;;;;;;1.35;0.82;;;21.00;50.70;;;;;;6175400;28;20026;-72
2022/06/03 07:28:50;;;;;;;0.83;0.80;;;21.00;50.70;;;;;;6175154;28;20147;-72
2022/06/03 07:32:14;;;;;;;1.40;1.00;;;21.00;50.70;;;;;;6178490;28;20030;-72
2022/06/03 07:35:26;;;;;;;1.58;1.00;;;21.00;50.70;;;;;;6174920;28;20053;-72
2022/06/03 07:38:45;;;;;;;1.00;0.90;;;21.00;50.70;;;;;;6177918;28;20027;-72
2022/06/03 07:41:52;;;;;;;1.08;0.85;;;21.00;50.70;;;;;;6187164;28;20058;-73
2022/06/03 07:45:05;;;;;;;2.00;1.23;;;21.00;50.70;;;;;;6190963;28;20037;-73
2022/06/03 07:48:22;;;;;;;1.40;0.80;;;21.00;50.70;;;;;;6177992;28;20054;-72
2022/06/03 07:51:36;;;;;;;3.30;1.13;;;21.00;50.70;;;;;;6175431;28;20038;-72
2022/06/03 07:54:40;;;;;;;1.20;1.00;;;21.00;50.70;;;;;;6175131;28;20015;-74
2022/06/03 07:57:52;;;;;;;1.38;1.00;;;21.00;50.70;;;;;;6192368;28;20057;-73
2022/06/03 08:00:53;;;;;;;1.63;1.10;;;21.00;50.70;;;;;;6197632;28;20030;-71
2022/06/03 08:03:54;;;;;;;2.38;1.05;;;21.00;50.70;;;;;;6151646;28;20045;-73
2022/06/03 08:13:41;;;;;;;4.18;0.93;;;21.10;50.70;;;;;;6198756;28;20026;-74
2022/06/03 08:16:44;;;;;;;1.98;0.98;;;21.10;50.80;;;;;;6182022;28;20029;-73
2022/06/03 08:19:44;;;;;;;1.33;0.80;;;21.00;50.70;;;;;;6186995;28;20057;-73
2022/06/03 08:22:46;;;;;;;1.98;0.80;;;21.00;50.70;;;;;;6167621;28;20033;-73
2022/06/03 08:25:51;;;;;;;1.13;0.75;;;21.00;50.70;;;;;;6174698;28;20033;-73
2022/06/03 08:28:57;;;;;;;2.20;0.90;;;21.00;50.80;;;;;;6158352;28;20041;-73
2022/06/03 08:31:59;;;;;;;1.75;0.90;;;21.00;50.80;;;;;;6173016;28;20026;-73
2022/06/03 08:35:06;;;;;;;0.77;0.75;;;21.00;50.80;;;;;;6174396;28;20055;-73
2022/06/03 08:38:19;;;;;;;1.08;0.82;;;21.00;50.80;;;;;;6189490;28;20027;-74
2022/06/03 08:41:26;;;;;;;1.65;0.80;;;21.00;50.80;;;;;;6171445;28;20047;-73
2022/06/03 08:44:32;;;;;;;0.90;0.80;;;21.00;50.80;;;;;;6195121;28;20033;-73
2022/06/03 08:47:42;;;;;;;1.45;0.90;;;21.00;50.80;;;;;;6190104;28;20059;-73
2022/06/03 08:51:01;;;;;;;0.85;0.68;;;21.00;50.80;;;;;;6175191;28;20070;-73
2022/06/03 08:54:03;;;;;;;1.15;0.80;;;21.00;50.90;;;;;;6195790;28;20408;-73
2022/06/03 08:57:33;;;;;;;1.77;0.73;;;21.00;50.90;;;;;;6195355;28;20023;-73
2022/06/03 09:00:52;;;;;;;1.20;0.80;;;21.00;50.80;;;;;;6150626;28;20034;-73
2022/06/03 09:04:09;;;;;;;1.17;0.85;;;21.00;50.80;;;;;;6175066;28;20027;-74
2022/06/03 09:07:36;;;;;;;1.30;0.80;;;21.00;50.80;;;;;;6178316;28;20030;-73
2022/06/03 09:10:51;;;;;;;0.63;0.60;;;21.00;50.80;;;;;;6198513;28;20077;-73
2022/06/03 09:14:03;;;;;;;1.42;0.90;;;21.00;50.80;;;;;;6182361;28;20057;-74
2022/06/03 09:17:44;;;;;;;0.95;0.68;;;21.00;50.90;;;;;;6173026;28;20085;-74
2022/06/03 09:20:57;;;;;;;0.90;0.63;;;21.00;50.90;;;;;;6197799;28;20543;-74
2022/06/03 09:24:05;;;;;;;0.85;0.77;;;21.00;50.90;;;;;;6179507;28;20122;-73
2022/06/03 09:27:08;;;;;;;1.08;0.70;;;21.00;50.90;;;;;;6174270;28;20470;-75
2022/06/03 09:30:12;;;;;;;7.35;0.80;;;21.00;50.90;;;;;;6169547;28;20050;-74
2022/06/03 09:33:16;;;;;;;0.65;0.60;;;21.00;50.80;;;;;;6173697;28;20158;-73
2022/06/03 09:36:20;;;;;;;0.75;0.73;;;21.00;50.80;;;;;;6174213;28;20023;-73
2022/06/03 09:39:22;;;;;;;1.63;0.80;;;21.00;50.80;;;;;;6190269;28;20022;-73
2022/06/03 09:42:23;;;;;;;0.85;0.70;;;21.00;50.80;;;;;;6197926;28;20114;-73
2022/06/03 09:45:26;;;;;;;1.15;0.85;;;21.00;50.80;;;;;;6173969;28;20023;-73
2022/06/03 09:48:33;;;;;;;1.33;0.80;;;21.00;50.90;;;;;;6176408;28;20022;-73
2022/06/03 09:51:55;;;;;;;1.00;0.52;;;21.00;50.90;;;;;;6198060;28;20062;-73
2022/06/03 09:55:20;;;;;;;0.80;0.70;;;21.00;50.90;;;;;;6173898;28;20101;-75
2022/06/03 09:58:25;;;;;;;1.17;0.70;;;21.00;50.90;;;;;;6179753;28;20027;-73
2022/06/03 10:01:26;;;;;;;;;;;21.00;50.90;;;;;;6198270;28;20029;-73
2022/06/03 10:04:27;;;;;;;1.23;0.70;;;21.00;50.90;;;;;;6183461;28;19906;-73
2022/06/03 10:07:28;;;;;;;0.90;0.75;;;21.00;50.90;;;;;;6173959;28;20023;-74
2022/06/03 10:13:48;;;;;;;0.90;0.70;;;21.00;50.90;;;;;;6190850;28;20117;-73
2022/06/03 10:16:49;;;;;;;0.90;0.60;;;21.00;51.60;;;;;;6174464;28;20401;-73
2022/06/03 10:19:51;;;;;;;0.65;0.45;;;21.00;50.90;;;;;;6188506;28;20052;-73
2022/06/03 10:22:52;;;;;;;0.70;0.57;;;21.00;50.90;;;;;;6195930;28;20096;-73
2022/06/03 10:25:58;;;;;;;0.73;0.55;;;21.00;50.90;;;;;;6156668;28;20482;-74
2022/06/03 10:29:07;;;;;;;0.77;0.63;;;21.00;50.90;;;;;;6179821;28;20041;-74
2022/06/03 10:32:07;;;;;;;1.33;0.70;;;21.00;50.90;;;;;;6196826;28;20026;-73
2022/06/03 10:35:25;;;;;;;0.65;0.50;;;21.00;50.90;;;;;;6181730;28;20034;-74
2022/06/03 10:38:29;;;;;;;0.63;0.50;;;21.00;50.90;;;;;;6175294;28;20042;-73
2022/06/03 10:41:51;;;;;;;4.10;0.90;;;21.00;50.90;;;;;;6196719;28;20124;-73
2022/06/03 10:44:57;;;;;;;0.70;0.50;;;21.00;50.90;;;;;;6179683;28;20034;-73
2022/06/03 10:47:58;;;;;;;0.68;0.60;;;21.00;50.90;;;;;;6197156;28;20030;-73
2022/06/03 11:01:05;;;;;;;1.05;0.70;;;21.00;50.90;;;;;;6177088;28;20537;-73
2022/06/03 11:01:26;;;;;;;0.60;0.60;;;21.00;50.90;;;;;;6180820;28;20042;-73
2022/06/03 11:04:30;;;;;;;0.70;0.60;;;21.00;50.90;;;;;;6183789;28;20030;-74
2022/06/03 11:07:31;;;;;;;1.00;0.63;;;21.00;50.90;;;;;;6201610;28;20018;-74
2022/06/03 11:10:37;;;;;;;0.60;0.50;;;21.00;51.00;;;;;;6185218;28;20506;-74
2022/06/03 11:13:41;;;;;;;1.05;0.70;;;21.00;50.90;;;;;;6177329;28;20019;-74
2022/06/03 11:16:57;;;;;;;0.98;0.65;;;21.00;50.90;;;;;;6200150;28;20110;-73
2022/06/03 11:19:59;;;;;;;0.68;0.50;;;21.00;50.90;;;;;;6192714;28;20027;-73
2022/06/03 11:23:01;;;;;;;0.60;0.55;;;21.00;50.90;;;;;;6174319;28;20113;-73
2022/06/03 11:26:02;;;;;;;0.82;0.57;;;21.00;50.90;;;;;;6190086;28;20474;-74
2022/06/03 11:29:10;;;;;;;0.47;0.43;;;21.00;50.90;;;;;;6201813;28;20113;-73
2022/06/03 11:32:13;;;;;;;0.50;0.50;;;21.00;50.90;;;;;;6193267;28;20113;-74
2022/06/03 11:35:33;;;;;;;0.60;0.60;;;21.00;51.30;;;;;;6191455;28;20411;-73
2022/06/03 11:38:37;;;;;;;0.80;0.63;;;21.00;50.90;;;;;;6176904;28;20057;-73
2022/06/03 11:41:44;;;;;;;0.88;0.60;;;21.00;50.90;;;;;;6195300;28;20019;-73
2022/06/03 11:44:58;;;;;;;0.70;0.55;;;21.00;50.90;;;;;;6201093;28;20044;-73
2022/06/03 11:48:10;;;;;;;0.70;0.70;;;21.00;50.90;;;;;;6200893;28;20042;-73
2022/06/03 11:51:12;;;;;;;0.60;0.60;;;21.00;50.90;;;;;;6186618;28;20093;-73
2022/06/03 11:54:15;;;;;;;0.47;0.47;;;21.00;50.90;;;;;;6176427;28;20035;-74
2022/06/03 11:57:16;;;;;;;0.50;0.40;;;21.00;51.00;;;;;;6198217;28;20104;-74
2022/06/03 12:00:19;;;;;;;0.77;0.60;;;21.00;51.00;;;;;;6195436;28;20035;-73
2022/06/03 12:03:31;;;;;;;0.75;0.47;;;21.00;50.90;;;;;;6176083;28;20034;-73
2022/06/03 12:07:03;;;;;;;1.42;0.50;;;21.00;51.00;;;;;;6187591;28;20030;-74
2022/06/03 12:10:23;;;;;;;0.43;0.40;;;21.00;50.90;;;;;;6196712;28;20038;-73
2022/06/03 12:13:29;;;;;;;0.95;0.60;;;21.00;50.90;;;;;;6176184;28;20106;-73
2022/06/03 12:17:13;;;;;;;0.55;0.50;;;21.00;50.90;;;;;;6185897;28;20066;-73
2022/06/03 12:20:32;;;;;;;0.47;0.45;;;21.00;50.90;;;;;;6191770;28;20130;-74
2022/06/03 12:23:38;;;;;;;0.50;0.40;;;21.00;50.90;;;;;;6175736;28;20027;-74
2022/06/03 12:26:39;;;;;;;0.75;0.50;;;21.00;51.00;;;;;;6175583;28;20026;-73
2022/06/03 12:29:55;;;;;;;0.40;0.40;;;21.00;51.00;;;;;;6175264;28;20031;-73
2022/06/03 12:33:01;;;;;;;0.70;0.50;;;21.00;51.00;;;;;;6174648;28;20070;-75
2022/06/03 12:36:06;;;;;;;0.40;0.40;;;21.00;51.00;;;;;;6181953;28;20019;-74
2022/06/03 12:39:09;;;;;;;;;;;21.00;51.00;;;;;;6200476;28;20049;-74
2022/06/03 12:42:30;;;;;;;0.50;0.50;;;21.00;51.00;;;;;;6184462;28;19913;-73
2022/06/03 12:45:33;;;;;;;0.40;0.40;;;21.00;51.00;;;;;;6176219;28;20390;-73
2022/06/03 12:48:48;;;;;;;0.80;0.60;;;21.00;51.00;;;;;;6195160;28;20077;-74
2022/06/03 12:52:01;;;;;;;0.82;0.60;;;21.00;51.00;;;;;;6188353;28;20033;-73
2022/06/03 12:55:14;;;;;;;0.50;0.50;;;21.00;51.00;;;;;;6175265;28;20413;-73
2022/06/03 12:58:15;;;;;;;0.50;0.50;;;21.00;51.00;;;;;;6174970;28;20019;-73
2022/06/03 13:01:47;;;;;;;0.40;0.40;;;21.00;51.00;;;;;;6179860;28;20424;-73
2022/06/03 13:05:08;;;;;;;0.70;0.40;;;21.00;51.00;;;;;;6199079;28;20058;-73
2022/06/03 13:08:12;;;;;;;0.45;0.45;;;21.00;51.00;;;;;;6199107;28;20378;-74
2022/06/03 13:11:22;;;;;;;0.40;0.40;;;21.00;51.00;;;;;;6195381;28;20035;-73
2022/06/03 13:14:29;;;;;;;0.68;0.60;;;21.00;51.70;;;;;;6174255;28;20102;-73
2022/06/03 13:18:18;;;;;;;0.43;0.40;;;21.00;51.00;;;;;;6187672;28;20025;-73
2022/06/03 13:21:27;;;;;;;0.50;0.50;;;21.00;51.00;;;;;;6196112;28;20414;-73
2022/06/03 13:24:33;;;;;;;0.60;0.47;;;21.00;50.90;;;;;;6174700;28;20027;-73
2022/06/03 13:27:33;;;;;;;0.55;0.50;;;21.00;50.90;;;;;;6186179;28;20031;-74
2022/06/03 13:30:38;;;;;;;0.50;0.50;;;21.00;50.90;;;;;;6198101;28;20054;-73
2022/06/03 13:34:02;;;;;;;0.77;0.50;;;21.00;50.90;;;;;;6177683;28;20166;-73
2022/06/03 13:37:29;;;;;;;0.40;0.40;;;21.00;50.90;;;;;;6180496;28;20365;-74
2022/06/03 13:40:35;;;;;;;0.40;0.40;;;21.00;50.80;;;;;;6198441;28;20393;-74
2022/06/03 13:43:36;;;;;;;0.30;0.30;;;21.00;50.90;;;;;;6198441;28;20031;-73
2022/06/03 13:46:38;;;;;;;0.70;0.40;;;21.00;50.90;;;;;;6195752;28;20504;-73
2022/06/03 13:49:47;;;;;;;0.60;0.47;;;21.00;50.90;;;;;;6173660;28;20077;-73
2022/06/03 13:52:47;;;;;;;0.43;0.43;;;21.00;50.90;;;;;;6176874;28;20272;-73
2022/06/03 13:56:05;;;;;;;0.40;0.40;;;21.00;51.00;;;;;;6171768;28;20034;-73
2022/06/03 13:59:15;;;;;;;0.47;0.47;;;21.00;51.00;;;;;;6177305;28;20022;-73
2022/06/03 14:02:33;;;;;;;0.57;0.52;;;21.00;51.00;;;;;;6190066;28;20038;-74
2022/06/03 14:05:51;;;;;;;0.70;0.55;;;21.00;51.00;;;;;;6185355;28;20049;-73
2022/06/03 14:09:18;;;;;;;0.30;0.30;;;21.00;50.90;;;;;;6182505;28;20117;-74
2022/06/03 14:12:30;;;;;;;0.60;0.40;;;21.00;50.90;;;;;;6190647;28;20106;-74
2022/06/03 14:15:39;;;;;;;0.32;0.32;;;21.00;51.00;;;;;;6170909;28;20049;-74
2022/06/03 14:18:51;;;;;;;0.57;0.40;;;21.00;51.30;;;;;;6169556;28;20037;-74
2022/06/03 14:21:54;;;;;;;0.80;0.50;;;21.00;51.30;;;;;;6178114;28;20107;-76
2022/06/03 14:25:08;;;;;;;2.35;0.40;;;21.00;51.30;;;;;;6173603;28;20031;-74
2022/06/03 14:28:36;;;;;;;2.28;0.82;;;21.00;51.30;;;;;;6186832;28;20129;-74
2022/06/03 14:31:42;;;;;;;0.30;0.30;;;21.00;51.20;;;;;;6194083;28;20030;-74
2022/06/03 14:34:57;;;;;;;0.40;0.40;;;21.00;51.30;;;;;;6174357;28;20065;-74
2022/06/03 14:38:15;;;;;;;0.43;0.40;;;21.00;51.20;;;;;;6186454;28;20030;-74
2022/06/03 14:41:27;;;;;;;1.00;0.43;;;21.00;51.20;;;;;;6189666;28;20038;-74
2022/06/03 14:44:30;;;;;;;0.80;0.45;;;21.00;51.20;;;;;;6190132;28;20114;-74
2022/06/03 14:47:37;;;;;;;0.40;0.40;;;21.00;51.20;;;;;;6178352;28;20031;-74
2022/06/03 14:50:42;;;;;;;0.52;0.30;;;21.00;51.20;;;;;;6194211;28;20425;-74
2022/06/03 14:53:52;;;;;;;0.30;0.30;;;21.00;51.20;;;;;;6193181;28;20037;-74
2022/06/03 14:56:57;;;;;;;0.80;0.47;;;21.00;51.20;;;;;;6193645;28;20465;-74
2022/06/03 15:00:09;;;;;;;;;;;21.00;51.20;;;;;;6174565;28;20652;-74
2022/06/03 15:03:16;;;;;;;0.43;0.40;;;21.00;51.20;;;;;;6174622;28;20276;-74
2022/06/03 15:06:20;;;;;;;0.47;0.40;;;21.00;51.20;;;;;;6195945;28;20030;-74
2022/06/03 15:09:33;;;;;;;0.32;0.32;;;21.00;51.20;;;;;;6182544;28;20385;-74
2022/06/03 15:12:35;;;;;;;0.98;0.57;;;21.00;51.20;;;;;;6167662;28;20526;-74
2022/06/03 15:15:36;;;;;;;0.30;0.30;;;21.00;51.20;;;;;;6172524;28;20034;-73
2022/06/03 15:18:40;;;;;;;0.40;0.40;;;21.00;51.20;;;;;;6176062;28;20027;-74
2022/06/03 15:21:41;;;;;;;1.05;0.40;;;21.00;51.20;;;;;;6185587;28;20019;-74
2022/06/03 15:24:53;;;;;;;0.32;0.30;;;21.00;51.20;;;;;;6179911;28;20038;-72
2022/06/03 15:28:05;;;;;;;0.38;0.30;;;21.00;51.20;;;;;;6170064;28;20521;-73
2022/06/03 15:31:20;;;;;;;0.52;0.40;;;21.00;51.20;;;;;;6186366;28;20034;-73
2022/06/03 15:34:23;;;;;;;0.35;0.30;;;21.00;51.10;;;;;;6184919;28;20490;-73
2022/06/03 15:37:23;;;;;;;0.50;0.40;;;21.00;51.10;;;;;;6171889;28;20119;-73
2022/06/03 15:40:33;;;;;;;0.50;0.50;;;21.00;51.10;;;;;;6192343;28;20481;-73
2022/06/03 15:43:44;;;;;;;0.40;0.40;;;21.00;51.10;;;;;;6196066;28;20106;-73
2022/06/03 15:47:01;;;;;;;0.80;0.40;;;21.00;51.10;;;;;;6198472;28;20027;-74
2022/06/03 15:50:15;;;;;;;1.83;0.43;;;21.00;51.10;;;;;;6190789;28;20037;-73
2022/06/03 15:53:24;;;;;;;0.65;0.50;;;21.00;51.10;;;;;;6156988;28;20073;-73
2022/06/03 15:56:48;;;;;;;0.73;0.50;;;20.90;51.00;;;;;;6173605;28;20031;-73
2022/06/03 16:00:07;;;;;;;0.75;0.40;;;21.00;51.10;;;;;;6183750;28;20026;-73
2022/06/03 16:03:53;;;;;;;0.38;0.38;;;21.00;51.10;;;;;;6198436;28;20416;-73
2022/06/03 16:07:06;;;;;;;;;;;20.90;51.70;;;;;;6198385;28;20030;-73
2022/06/03 16:10:53;;;;;;;0.70;0.40;;;20.90;51.00;;;;;;6197907;28;20364;-73
2022/06/03 16:14:06;;;;;;;1.17;0.52;;;21.00;51.10;;;;;;6179531;28;20027;-72
2022/06/03 16:17:27;;;;;;;0.22;0.22;;;20.90;51.00;;;;;;6174290;28;20110;-73
2022/06/03 16:20:43;;;;;;;1.33;0.47;;;21.00;51.10;;;;;;6185675;28;20050;-73
2022/06/03 16:23:47;;;;;;;0.75;0.30;;;20.90;51.00;;;;;;6192199;28;20029;-72
2022/06/03 16:27:08;;;;;;;0.68;0.50;;;21.00;51.10;;;;;;6174595;28;20037;-72
2022/06/03 16:30:21;;;;;;;0.47;0.40;;;21.00;51.10;;;;;;6171199;28;20027;-73
2022/06/03 16:33:38;;;;;;;0.60;0.50;;;20.90;51.00;;;;;;6184302;28;20055;-73
2022/06/03 16:37:06;;;;;;;0.45;0.43;;;20.90;51.10;;;;;;6191071;28;20066;-73
2022/06/03 16:40:10;;;;;;;0.77;0.40;;;20.90;51.00;;;;;;6188572;28;20026;-73
2022/06/03 16:43:49;;;;;;;0.93;0.50;;;20.90;51.00;;;;;;6171000;28;20057;-73
2022/06/03 16:47:16;;;;;;;1.05;0.60;;;20.90;51.10;;;;;;6187842;28;20547;-73
2022/06/03 16:50:29;;;;;;;0.30;0.30;;;20.90;51.10;;;;;;6187526;28;20023;-72
2022/06/03 16:53:34;;;;;;;0.50;0.40;;;20.90;51.10;;;;;;6188593;28;20030;-73
2022/06/03 16:56:37;;;;;;;0.47;0.40;;;20.90;51.10;;;;;;6177329;28;20027;-72
2022/06/03 16:59:41;;;;;;;0.38;0.38;;;20.90;51.10;;;;;;6184556;28;20031;-72
2022/06/03 17:03:07;;;;;;;0.50;0.40;;;20.90;51.00;;;;;;6187838;28;20030;-72
2022/06/03 17:06:10;;;;;;;0.82;0.40;;;20.90;51.10;;;;;;6194191;28;20496;-72
2022/06/03 17:09:12;;;;;;;0.45;0.40;;;21.00;51.20;;;;;;6193617;28;20122;-72
2022/06/03 17:12:15;;;;;;;0.30;0.30;;;20.90;51.10;;;;;;6193924;28;20146;-72
2022/06/03 17:15:16;;;;;;;0.47;0.40;;;20.90;51.10;;;;;;6188649;28;20072;-73
2022/06/03 17:18:17;;;;;;;0.63;0.60;;;20.90;51.10;;;;;;6168308;28;20072;-72
2022/06/03 17:21:51;;;;;;;0.38;0.38;;;20.90;51.10;;;;;;6176286;28;20561;-72